sensor_id;sensor_type;location;lat;lon;timestamp;temperature;humidity
22173;DHT22;11252;50.596;17.648;2023-04-06T00:01:25;-1.80;92.20
22173;DHT22;11252;50.596;17.648;2023-04-06T00:03:52;-1.80;92.20
22173;DHT22;11252;50.596;17.648;2023-04-06T00:06:19;-1.90;92.20
22173;DHT22;11252;50.596;17.648;2023-04-06T00:08:47;-1.90;92.20
22173;DHT22;11252;50.596;17.648;2023-04-06T00:11:14;-1.90;92.20
22173;DHT22;11252;50.596;17.648;2023-04-06T00:13:41;-1.90;92.20
22173;DHT22;11252;50.596;17.648;2023-04-06T00:16:08;-1.90;92.20
22173;DHT22;11252;50.596;17.648;2023-04-06T00:18:36;-2.00;92.20
22173;DHT22;11252;50.596;17.648;2023-04-06T00:21:03;-2.00;92.20
22173;DHT22;11252;50.596;17.648;2023-04-06T00:23:31;-2.00;92.20
22173;DHT22;11252;50.596;17.648;2023-04-06T00:25:58;-2.10;92.20
22173;DHT22;11252;50.596;17.648;2023-04-06T00:28:27;-2.10;92.20
22173;DHT22;11252;50.596;17.648;2023-04-06T00:30:56;-2.00;92.20
22173;DHT22;11252;50.596;17.648;2023-04-06T00:33:24;-2.10;92.20
22173;DHT22;11252;50.596;17.648;2023-04-06T00:35:51;-2.20;92.20
22173;DHT22;11252;50.596;17.648;2023-04-06T00:38:19;-2.30;92.20
22173;DHT22;11252;50.596;17.648;2023-04-06T00:40:46;-2.20;92.20
22173;DHT22;11252;50.596;17.648;2023-04-06T00:43:14;-2.30;92.20
22173;DHT22;11252;50.596;17.648;2023-04-06T00:45:41;-2.30;92.20
22173;DHT22;11252;50.596;17.648;2023-04-06T00:48:09;-2.30;92.20
22173;DHT22;11252;50.596;17.648;2023-04-06T00:50:36;-2.30;92.20
22173;DHT22;11252;50.596;17.648;2023-04-06T00:53:03;-2.40;92.20
22173;DHT22;11252;50.596;17.648;2023-04-06T00:55:31;-2.40;92.20
22173;DHT22;11252;50.596;17.648;2023-04-06T00:57:59;-2.50;92.20
22173;DHT22;11252;50.596;17.648;2023-04-06T01:00:27;-2.50;92.20
22173;DHT22;11252;50.596;17.648;2023-04-06T01:02:55;-2.50;92.20
22173;DHT22;11252;50.596;17.648;2023-04-06T01:05:22;-2.50;92.20
22173;DHT22;11252;50.596;17.648;2023-04-06T01:07:50;-2.50;92.20
22173;DHT22;11252;50.596;17.648;2023-04-06T01:10:28;-2.50;92.20
22173;DHT22;11252;50.596;17.648;2023-04-06T01:12:56;-2.50;92.20
22173;DHT22;11252;50.596;17.648;2023-04-06T01:15:24;-2.60;92.20
22173;DHT22;11252;50.596;17.648;2023-04-06T01:17:51;-2.60;92.20
22173;DHT22;11252;50.596;17.648;2023-04-06T01:20:19;-2.60;92.20
22173;DHT22;11252;50.596;17.648;2023-04-06T01:22:46;-2.60;92.20
22173;DHT22;11252;50.596;17.648;2023-04-06T01:25:13;-2.70;92.20
22173;DHT22;11252;50.596;17.648;2023-04-06T01:27:40;-2.70;92.20
22173;DHT22;11252;50.596;17.648;2023-04-06T01:30:11;-2.70;92.20
22173;DHT22;11252;50.596;17.648;2023-04-06T01:32:38;-2.70;92.20
22173;DHT22;11252;50.596;17.648;2023-04-06T01:35:06;-2.70;92.20
22173;DHT22;11252;50.596;17.648;2023-04-06T01:37:33;-2.80;92.20
22173;DHT22;11252;50.596;17.648;2023-04-06T01:40:00;-2.80;92.20
22173;DHT22;11252;50.596;17.648;2023-04-06T01:42:28;-2.70;92.20
22173;DHT22;11252;50.596;17.648;2023-04-06T01:44:55;-2.80;92.20
22173;DHT22;11252;50.596;17.648;2023-04-06T01:47:22;-2.80;92.20
22173;DHT22;11252;50.596;17.648;2023-04-06T01:49:49;-2.80;92.20
22173;DHT22;11252;50.596;17.648;2023-04-06T01:52:17;-2.90;92.20
22173;DHT22;11252;50.596;17.648;2023-04-06T01:54:44;-2.90;92.20
22173;DHT22;11252;50.596;17.648;2023-04-06T01:57:12;-2.90;92.20
22173;DHT22;11252;50.596;17.648;2023-04-06T01:59:39;-2.90;92.20
22173;DHT22;11252;50.596;17.648;2023-04-06T02:02:06;-2.90;92.20
22173;DHT22;11252;50.596;17.648;2023-04-06T02:04:34;-2.90;92.20
22173;DHT22;11252;50.596;17.648;2023-04-06T02:07:01;-3.00;92.20
22173;DHT22;11252;50.596;17.648;2023-04-06T02:09:28;-3.00;92.20
22173;DHT22;11252;50.596;17.648;2023-04-06T02:11:57;-3.00;92.20
22173;DHT22;11252;50.596;17.648;2023-04-06T02:14:25;-3.00;92.20
22173;DHT22;11252;50.596;17.648;2023-04-06T02:16:53;-3.00;92.20
22173;DHT22;11252;50.596;17.648;2023-04-06T02:19:20;-3.10;92.20
22173;DHT22;11252;50.596;17.648;2023-04-06T02:21:48;-3.10;92.20
22173;DHT22;11252;50.596;17.648;2023-04-06T02:24:15;-3.20;92.20
22173;DHT22;11252;50.596;17.648;2023-04-06T02:26:46;-3.20;92.20
22173;DHT22;11252;50.596;17.648;2023-04-06T02:29:13;-3.20;92.20
22173;DHT22;11252;50.596;17.648;2023-04-06T02:31:40;-3.20;92.20
22173;DHT22;11252;50.596;17.648;2023-04-06T02:34:07;-3.20;92.20
22173;DHT22;11252;50.596;17.648;2023-04-06T02:36:37;-3.20;92.20
22173;DHT22;11252;50.596;17.648;2023-04-06T02:39:04;-3.20;92.20
22173;DHT22;11252;50.596;17.648;2023-04-06T02:41:32;-3.20;92.20
22173;DHT22;11252;50.596;17.648;2023-04-06T02:44:02;-3.30;92.20
22173;DHT22;11252;50.596;17.648;2023-04-06T02:46:30;-3.30;92.20
22173;DHT22;11252;50.596;17.648;2023-04-06T02:48:57;-3.30;92.20
22173;DHT22;11252;50.596;17.648;2023-04-06T02:51:27;-3.30;92.20
22173;DHT22;11252;50.596;17.648;2023-04-06T02:53:55;-3.40;92.20
22173;DHT22;11252;50.596;17.648;2023-04-06T02:56:22;-3.40;92.20
22173;DHT22;11252;50.596;17.648;2023-04-06T02:58:49;-3.40;92.20
22173;DHT22;11252;50.596;17.648;2023-04-06T03:01:16;-3.40;92.20
22173;DHT22;11252;50.596;17.648;2023-04-06T03:03:44;-3.40;92.20
22173;DHT22;11252;50.596;17.648;2023-04-06T03:06:11;-3.40;92.20
22173;DHT22;11252;50.596;17.648;2023-04-06T03:08:38;-3.50;92.20
22173;DHT22;11252;50.596;17.648;2023-04-06T03:11:06;-3.60;92.20
22173;DHT22;11252;50.596;17.648;2023-04-06T03:13:33;-3.60;92.20
22173;DHT22;11252;50.596;17.648;2023-04-06T03:16:01;-3.60;92.20
22173;DHT22;11252;50.596;17.648;2023-04-06T03:18:28;-3.60;92.20
22173;DHT22;11252;50.596;17.648;2023-04-06T03:20:55;-3.60;92.20
22173;DHT22;11252;50.596;17.648;2023-04-06T03:23:23;-3.60;92.20
22173;DHT22;11252;50.596;17.648;2023-04-06T03:25:50;-3.70;92.20
22173;DHT22;11252;50.596;17.648;2023-04-06T03:28:17;-3.70;92.20
22173;DHT22;11252;50.596;17.648;2023-04-06T03:30:45;-3.70;92.20
22173;DHT22;11252;50.596;17.648;2023-04-06T03:33:12;-3.70;92.20
22173;DHT22;11252;50.596;17.648;2023-04-06T03:35:40;-3.70;92.20
22173;DHT22;11252;50.596;17.648;2023-04-06T03:38:07;-3.70;92.20
22173;DHT22;11252;50.596;17.648;2023-04-06T03:40:35;-3.70;92.20
22173;DHT22;11252;50.596;17.648;2023-04-06T03:43:03;-3.70;92.20
22173;DHT22;11252;50.596;17.648;2023-04-06T03:45:31;-3.80;92.20
22173;DHT22;11252;50.596;17.648;2023-04-06T03:47:58;-3.80;92.20
22173;DHT22;11252;50.596;17.648;2023-04-06T03:50:26;-3.80;92.20
22173;DHT22;11252;50.596;17.648;2023-04-06T03:52:56;-3.80;92.20
22173;DHT22;11252;50.596;17.648;2023-04-06T03:55:23;-3.80;92.20
22173;DHT22;11252;50.596;17.648;2023-04-06T03:57:50;-3.80;92.20
22173;DHT22;11252;50.596;17.648;2023-04-06T04:00:17;-3.80;92.20
22173;DHT22;11252;50.596;17.648;2023-04-06T04:02:44;-3.80;92.20
22173;DHT22;11252;50.596;17.648;2023-04-06T04:05:12;-3.70;92.20
22173;DHT22;11252;50.596;17.648;2023-04-06T04:07:39;-3.80;92.20
22173;DHT22;11252;50.596;17.648;2023-04-06T04:10:07;-3.80;92.20
22173;DHT22;11252;50.596;17.648;2023-04-06T04:12:34;-3.90;92.20
22173;DHT22;11252;50.596;17.648;2023-04-06T04:15:02;-4.00;92.20
22173;DHT22;11252;50.596;17.648;2023-04-06T04:17:30;-4.00;92.20
22173;DHT22;11252;50.596;17.648;2023-04-06T04:20:00;-4.00;92.20
22173;DHT22;11252;50.596;17.648;2023-04-06T04:22:31;-4.10;92.20
22173;DHT22;11252;50.596;17.648;2023-04-06T04:24:58;-4.10;92.20
22173;DHT22;11252;50.596;17.648;2023-04-06T04:27:26;-4.10;92.20
22173;DHT22;11252;50.596;17.648;2023-04-06T04:29:53;-4.10;92.20
22173;DHT22;11252;50.596;17.648;2023-04-06T04:32:20;-4.00;92.20
22173;DHT22;11252;50.596;17.648;2023-04-06T04:34:48;-4.00;92.20
22173;DHT22;11252;50.596;17.648;2023-04-06T04:37:15;-4.10;92.20
22173;DHT22;11252;50.596;17.648;2023-04-06T04:39:44;-4.00;92.20
22173;DHT22;11252;50.596;17.648;2023-04-06T04:42:13;-4.00;92.20
22173;DHT22;11252;50.596;17.648;2023-04-06T04:44:40;-4.00;92.20
22173;DHT22;11252;50.596;17.648;2023-04-06T04:47:07;-4.00;92.20
22173;DHT22;11252;50.596;17.648;2023-04-06T04:49:35;-4.00;92.20
22173;DHT22;11252;50.596;17.648;2023-04-06T04:52:02;-4.00;92.20
22173;DHT22;11252;50.596;17.648;2023-04-06T04:54:29;-4.00;92.20
22173;DHT22;11252;50.596;17.648;2023-04-06T04:56:56;-4.00;92.20
22173;DHT22;11252;50.596;17.648;2023-04-06T04:59:23;-4.00;92.20
22173;DHT22;11252;50.596;17.648;2023-04-06T05:01:51;-3.90;92.20
22173;DHT22;11252;50.596;17.648;2023-04-06T05:04:22;-4.00;92.20
22173;DHT22;11252;50.596;17.648;2023-04-06T05:06:50;-3.90;92.20
22173;DHT22;11252;50.596;17.648;2023-04-06T05:09:17;-3.90;92.20
22173;DHT22;11252;50.596;17.648;2023-04-06T05:11:46;-3.90;92.20
22173;DHT22;11252;50.596;17.648;2023-04-06T05:14:13;-3.80;92.20
22173;DHT22;11252;50.596;17.648;2023-04-06T05:16:40;-3.80;92.20
22173;DHT22;11252;50.596;17.648;2023-04-06T05:19:07;-3.70;92.20
22173;DHT22;11252;50.596;17.648;2023-04-06T05:21:35;-3.70;92.20
22173;DHT22;11252;50.596;17.648;2023-04-06T05:24:02;-3.50;92.20
22173;DHT22;11252;50.596;17.648;2023-04-06T05:26:30;-3.40;92.20
22173;DHT22;11252;50.596;17.648;2023-04-06T05:28:57;-3.30;92.20
22173;DHT22;11252;50.596;17.648;2023-04-06T05:31:24;-3.20;92.20
22173;DHT22;11252;50.596;17.648;2023-04-06T05:33:52;-3.00;92.20
22173;DHT22;11252;50.596;17.648;2023-04-06T05:36:19;-2.90;92.20
22173;DHT22;11252;50.596;17.648;2023-04-06T05:38:46;-2.70;92.20
22173;DHT22;11252;50.596;17.648;2023-04-06T05:41:14;-2.60;92.20
22173;DHT22;11252;50.596;17.648;2023-04-06T05:43:41;-2.40;92.20
22173;DHT22;11252;50.596;17.648;2023-04-06T05:46:08;-2.20;92.20
22173;DHT22;11252;50.596;17.648;2023-04-06T05:48:36;-2.10;92.20
22173;DHT22;11252;50.596;17.648;2023-04-06T05:51:03;-2.10;92.20
22173;DHT22;11252;50.596;17.648;2023-04-06T05:53:33;-1.90;92.20
22173;DHT22;11252;50.596;17.648;2023-04-06T05:56:03;-1.90;92.20
22173;DHT22;11252;50.596;17.648;2023-04-06T05:58:31;-1.80;92.20
22173;DHT22;11252;50.596;17.648;2023-04-06T06:00:58;-1.70;92.20
22173;DHT22;11252;50.596;17.648;2023-04-06T06:03:26;-1.60;92.20
22173;DHT22;11252;50.596;17.648;2023-04-06T06:05:54;-1.40;92.20
22173;DHT22;11252;50.596;17.648;2023-04-06T06:08:27;-1.30;92.20
22173;DHT22;11252;50.596;17.648;2023-04-06T06:10:54;-1.20;92.20
22173;DHT22;11252;50.596;17.648;2023-04-06T06:13:22;-1.10;92.20
22173;DHT22;11252;50.596;17.648;2023-04-06T06:15:50;-0.90;92.20
22173;DHT22;11252;50.596;17.648;2023-04-06T06:18:17;-0.80;92.20
22173;DHT22;11252;50.596;17.648;2023-04-06T06:20:45;-0.60;92.20
22173;DHT22;11252;50.596;17.648;2023-04-06T06:23:12;-0.50;92.20
22173;DHT22;11252;50.596;17.648;2023-04-06T06:25:40;-0.40;92.20
22173;DHT22;11252;50.596;17.648;2023-04-06T06:28:07;-0.20;92.20
22173;DHT22;11252;50.596;17.648;2023-04-06T06:30:34;-0.10;92.20
22173;DHT22;11252;50.596;17.648;2023-04-06T06:33:01;0.00;92.20
22173;DHT22;11252;50.596;17.648;2023-04-06T06:35:29;0.20;92.20
22173;DHT22;11252;50.596;17.648;2023-04-06T06:37:56;0.40;92.20
22173;DHT22;11252;50.596;17.648;2023-04-06T06:40:23;0.50;92.20
22173;DHT22;11252;50.596;17.648;2023-04-06T06:42:51;0.70;92.20
22173;DHT22;11252;50.596;17.648;2023-04-06T06:45:19;1.00;92.20
22173;DHT22;11252;50.596;17.648;2023-04-06T06:47:47;1.20;92.20
22173;DHT22;11252;50.596;17.648;2023-04-06T06:50:14;1.30;92.20
22173;DHT22;11252;50.596;17.648;2023-04-06T06:52:43;1.20;92.20
22173;DHT22;11252;50.596;17.648;2023-04-06T06:55:10;1.20;92.20
22173;DHT22;11252;50.596;17.648;2023-04-06T06:57:38;1.40;92.20
22173;DHT22;11252;50.596;17.648;2023-04-06T07:00:06;1.60;92.20
22173;DHT22;11252;50.596;17.648;2023-04-06T07:02:36;1.70;92.20
22173;DHT22;11252;50.596;17.648;2023-04-06T07:05:03;1.90;92.20
22173;DHT22;11252;50.596;17.648;2023-04-06T07:07:50;2.10;92.20
22173;DHT22;11252;50.596;17.648;2023-04-06T07:10:18;2.20;92.20
22173;DHT22;11252;50.596;17.648;2023-04-06T07:12:45;2.10;92.20
22173;DHT22;11252;50.596;17.648;2023-04-06T07:15:13;2.10;92.20
22173;DHT22;11252;50.596;17.648;2023-04-06T07:17:40;2.30;92.20
22173;DHT22;11252;50.596;17.648;2023-04-06T07:20:12;2.60;92.20
22173;DHT22;11252;50.596;17.648;2023-04-06T07:22:42;2.80;92.20
22173;DHT22;11252;50.596;17.648;2023-04-06T07:25:10;3.10;92.20
22173;DHT22;11252;50.596;17.648;2023-04-06T07:27:37;3.50;92.20
22173;DHT22;11252;50.596;17.648;2023-04-06T07:30:05;3.70;92.20
22173;DHT22;11252;50.596;17.648;2023-04-06T07:32:34;3.80;92.20
22173;DHT22;11252;50.596;17.648;2023-04-06T07:35:03;4.00;92.20
22173;DHT22;11252;50.596;17.648;2023-04-06T07:37:30;4.20;92.20
22173;DHT22;11252;50.596;17.648;2023-04-06T07:39:57;4.40;92.20
22173;DHT22;11252;50.596;17.648;2023-04-06T07:42:25;4.60;92.20
22173;DHT22;11252;50.596;17.648;2023-04-06T07:44:52;4.70;92.20
22173;DHT22;11252;50.596;17.648;2023-04-06T07:47:19;4.80;92.20
22173;DHT22;11252;50.596;17.648;2023-04-06T07:49:47;5.00;92.20
22173;DHT22;11252;50.596;17.648;2023-04-06T07:52:14;5.10;92.20
22173;DHT22;11252;50.596;17.648;2023-04-06T07:54:41;5.10;92.20
22173;DHT22;11252;50.596;17.648;2023-04-06T07:57:09;5.30;92.20
22173;DHT22;11252;50.596;17.648;2023-04-06T07:59:36;5.40;90.90
22173;DHT22;11252;50.596;17.648;2023-04-06T08:02:04;5.60;89.60
22173;DHT22;11252;50.596;17.648;2023-04-06T08:04:32;5.70;90.10
22173;DHT22;11252;50.596;17.648;2023-04-06T08:06:59;5.80;88.60
22173;DHT22;11252;50.596;17.648;2023-04-06T08:09:27;6.00;89.90
22173;DHT22;11252;50.596;17.648;2023-04-06T08:11:54;6.20;89.90
22173;DHT22;11252;50.596;17.648;2023-04-06T08:14:21;6.20;86.80
22173;DHT22;11252;50.596;17.648;2023-04-06T08:16:49;6.10;87.20
22173;DHT22;11252;50.596;17.648;2023-04-06T08:19:16;6.20;87.90
22173;DHT22;11252;50.596;17.648;2023-04-06T08:21:44;6.40;87.60
22173;DHT22;11252;50.596;17.648;2023-04-06T08:24:13;6.60;86.80
22173;DHT22;11252;50.596;17.648;2023-04-06T08:26:41;6.90;86.80
22173;DHT22;11252;50.596;17.648;2023-04-06T08:29:08;7.20;86.70
22173;DHT22;11252;50.596;17.648;2023-04-06T08:31:36;7.40;85.30
22173;DHT22;11252;50.596;17.648;2023-04-06T08:34:04;7.30;83.10
22173;DHT22;11252;50.596;17.648;2023-04-06T08:36:31;7.50;83.40
22173;DHT22;11252;50.596;17.648;2023-04-06T08:39:00;7.60;82.60
22173;DHT22;11252;50.596;17.648;2023-04-06T08:41:27;7.60;83.30
22173;DHT22;11252;50.596;17.648;2023-04-06T08:43:58;7.70;82.40
22173;DHT22;11252;50.596;17.648;2023-04-06T08:46:26;7.70;82.70
22173;DHT22;11252;50.596;17.648;2023-04-06T08:49:01;7.40;82.50
22173;DHT22;11252;50.596;17.648;2023-04-06T08:51:30;7.40;82.70
22173;DHT22;11252;50.596;17.648;2023-04-06T08:53:59;7.70;83.30
22173;DHT22;11252;50.596;17.648;2023-04-06T08:56:27;8.10;82.00
22173;DHT22;11252;50.596;17.648;2023-04-06T08:58:56;8.50;81.00
22173;DHT22;11252;50.596;17.648;2023-04-06T09:01:28;8.90;79.30
22173;DHT22;11252;50.596;17.648;2023-04-06T09:03:59;9.20;77.50
22173;DHT22;11252;50.596;17.648;2023-04-06T09:06:35;9.40;77.20
22173;DHT22;11252;50.596;17.648;2023-04-06T09:09:03;9.60;77.70
22173;DHT22;11252;50.596;17.648;2023-04-06T09:11:45;9.70;75.40
22173;DHT22;11252;50.596;17.648;2023-04-06T09:14:13;9.80;74.70
22173;DHT22;11252;50.596;17.648;2023-04-06T09:16:43;9.60;73.10
22173;DHT22;11252;50.596;17.648;2023-04-06T09:19:12;10.00;72.40
22173;DHT22;11252;50.596;17.648;2023-04-06T09:21:39;10.20;72.20
22173;DHT22;11252;50.596;17.648;2023-04-06T09:24:08;10.30;71.10
22173;DHT22;11252;50.596;17.648;2023-04-06T09:26:48;10.30;71.70
22173;DHT22;11252;50.596;17.648;2023-04-06T09:29:25;10.50;71.40
22173;DHT22;11252;50.596;17.648;2023-04-06T09:32:03;10.60;69.40
22173;DHT22;11252;50.596;17.648;2023-04-06T09:34:30;10.70;70.40
22173;DHT22;11252;50.596;17.648;2023-04-06T09:36:57;10.90;69.60
22173;DHT22;11252;50.596;17.648;2023-04-06T09:39:25;11.30;69.20
22173;DHT22;11252;50.596;17.648;2023-04-06T09:41:56;11.60;68.60
22173;DHT22;11252;50.596;17.648;2023-04-06T09:44:23;11.80;66.90
22173;DHT22;11252;50.596;17.648;2023-04-06T09:46:53;11.80;68.40
22173;DHT22;11252;50.596;17.648;2023-04-06T09:49:31;11.50;67.80
22173;DHT22;11252;50.596;17.648;2023-04-06T09:52:02;10.80;67.50
22173;DHT22;11252;50.596;17.648;2023-04-06T09:54:31;10.80;67.80
22173;DHT22;11252;50.596;17.648;2023-04-06T09:57:25;11.20;70.10
22173;DHT22;11252;50.596;17.648;2023-04-06T10:00:03;11.40;66.90
22173;DHT22;11252;50.596;17.648;2023-04-06T10:07:59;10.90;68.50
22173;DHT22;11252;50.596;17.648;2023-04-06T10:10:29;11.30;67.80
22173;DHT22;11252;50.596;17.648;2023-04-06T10:12:58;11.40;67.00
22173;DHT22;11252;50.596;17.648;2023-04-06T10:15:25;11.30;67.20
22173;DHT22;11252;50.596;17.648;2023-04-06T10:17:54;11.20;66.60
22173;DHT22;11252;50.596;17.648;2023-04-06T10:20:29;11.30;66.40
22173;DHT22;11252;50.596;17.648;2023-04-06T10:23:12;11.90;66.20
22173;DHT22;11252;50.596;17.648;2023-04-06T10:25:56;12.70;63.20
22173;DHT22;11252;50.596;17.648;2023-04-06T10:28:25;13.30;62.80
22173;DHT22;11252;50.596;17.648;2023-04-06T10:31:00;13.70;61.10
22173;DHT22;11252;50.596;17.648;2023-04-06T10:33:28;13.90;60.90
22173;DHT22;11252;50.596;17.648;2023-04-06T10:35:55;14.00;62.40
22173;DHT22;11252;50.596;17.648;2023-04-06T10:38:37;14.10;61.80
22173;DHT22;11252;50.596;17.648;2023-04-06T10:41:09;14.50;62.50
22173;DHT22;11252;50.596;17.648;2023-04-06T10:43:39;14.60;59.20
22173;DHT22;11252;50.596;17.648;2023-04-06T10:46:07;14.00;58.80
22173;DHT22;11252;50.596;17.648;2023-04-06T10:48:40;13.70;60.50
22173;DHT22;11252;50.596;17.648;2023-04-06T10:51:15;13.70;60.60
22173;DHT22;11252;50.596;17.648;2023-04-06T10:53:47;13.70;61.00
22173;DHT22;11252;50.596;17.648;2023-04-06T10:56:17;13.70;58.40
22173;DHT22;11252;50.596;17.648;2023-04-06T10:58:48;14.30;60.20
22173;DHT22;11252;50.596;17.648;2023-04-06T11:01:18;14.60;59.60
22173;DHT22;11252;50.596;17.648;2023-04-06T11:03:55;15.30;59.90
22173;DHT22;11252;50.596;17.648;2023-04-06T11:06:30;15.60;57.80
22173;DHT22;11252;50.596;17.648;2023-04-06T11:09:01;16.20;57.40
22173;DHT22;11252;50.596;17.648;2023-04-06T11:11:28;16.50;55.10
22173;DHT22;11252;50.596;17.648;2023-04-06T11:13:59;16.20;55.30
22173;DHT22;11252;50.596;17.648;2023-04-06T11:16:33;15.90;55.60
22173;DHT22;11252;50.596;17.648;2023-04-06T11:19:02;15.50;54.50
22173;DHT22;11252;50.596;17.648;2023-04-06T11:21:44;15.40;56.50
22173;DHT22;11252;50.596;17.648;2023-04-06T11:24:24;15.00;56.30
22173;DHT22;11252;50.596;17.648;2023-04-06T11:26:57;15.10;57.00
22173;DHT22;11252;50.596;17.648;2023-04-06T11:29:26;14.40;57.30
22173;DHT22;11252;50.596;17.648;2023-04-06T11:32:04;14.80;59.00
22173;DHT22;11252;50.596;17.648;2023-04-06T11:34:39;15.40;57.40
22173;DHT22;11252;50.596;17.648;2023-04-06T11:37:09;15.80;55.70
22173;DHT22;11252;50.596;17.648;2023-04-06T11:39:51;16.30;56.40
22173;DHT22;11252;50.596;17.648;2023-04-06T11:42:28;16.70;55.00
22173;DHT22;11252;50.596;17.648;2023-04-06T11:44:58;16.40;54.70
22173;DHT22;11252;50.596;17.648;2023-04-06T11:47:34;16.50;55.80
22173;DHT22;11252;50.596;17.648;2023-04-06T11:50:10;16.90;55.10
22173;DHT22;11252;50.596;17.648;2023-04-06T11:52:42;17.40;54.50
22173;DHT22;11252;50.596;17.648;2023-04-06T11:55:19;16.90;54.60
22173;DHT22;11252;50.596;17.648;2023-04-06T11:57:46;17.10;56.00
22173;DHT22;11252;50.596;17.648;2023-04-06T12:00:13;17.50;53.40
22173;DHT22;11252;50.596;17.648;2023-04-06T12:02:45;17.30;52.40
22173;DHT22;11252;50.596;17.648;2023-04-06T12:05:13;17.40;54.40
22173;DHT22;11252;50.596;17.648;2023-04-06T12:07:40;17.30;54.40
22173;DHT22;11252;50.596;17.648;2023-04-06T12:10:12;17.90;51.40
22173;DHT22;11252;50.596;17.648;2023-04-06T12:12:40;17.80;53.30
22173;DHT22;11252;50.596;17.648;2023-04-06T12:15:07;17.60;53.60
22173;DHT22;11252;50.596;17.648;2023-04-06T12:17:34;17.20;53.00
22173;DHT22;11252;50.596;17.648;2023-04-06T12:20:02;17.40;52.60
22173;DHT22;11252;50.596;17.648;2023-04-06T12:22:39;17.30;52.40
22173;DHT22;11252;50.596;17.648;2023-04-06T12:25:07;16.50;53.90
22173;DHT22;11252;50.596;17.648;2023-04-06T12:27:34;15.90;53.60
22173;DHT22;11252;50.596;17.648;2023-04-06T12:30:02;15.40;56.80
22173;DHT22;11252;50.596;17.648;2023-04-06T12:32:29;16.10;55.10
22173;DHT22;11252;50.596;17.648;2023-04-06T12:34:56;16.00;55.90
22173;DHT22;11252;50.596;17.648;2023-04-06T12:37:23;16.20;55.40
22173;DHT22;11252;50.596;17.648;2023-04-06T12:39:52;16.50;54.60
22173;DHT22;11252;50.596;17.648;2023-04-06T12:42:19;16.10;54.00
22173;DHT22;11252;50.596;17.648;2023-04-06T12:44:47;15.50;56.10
22173;DHT22;11252;50.596;17.648;2023-04-06T12:47:14;15.10;56.30
22173;DHT22;11252;50.596;17.648;2023-04-06T12:49:41;14.70;56.00
22173;DHT22;11252;50.596;17.648;2023-04-06T12:52:10;14.40;56.70
22173;DHT22;11252;50.596;17.648;2023-04-06T12:54:38;14.30;57.00
22173;DHT22;11252;50.596;17.648;2023-04-06T12:57:05;14.20;56.40
22173;DHT22;11252;50.596;17.648;2023-04-06T12:59:32;14.00;57.30
22173;DHT22;11252;50.596;17.648;2023-04-06T13:02:03;13.70;57.30
22173;DHT22;11252;50.596;17.648;2023-04-06T13:04:30;13.80;59.70
22173;DHT22;11252;50.596;17.648;2023-04-06T13:06:57;14.10;59.40
22173;DHT22;11252;50.596;17.648;2023-04-06T13:09:25;14.00;57.60
22173;DHT22;11252;50.596;17.648;2023-04-06T13:11:52;13.50;58.40
22173;DHT22;11252;50.596;17.648;2023-04-06T13:14:19;13.20;58.50
22173;DHT22;11252;50.596;17.648;2023-04-06T13:16:46;13.50;57.70
22173;DHT22;11252;50.596;17.648;2023-04-06T13:19:14;13.10;58.20
22173;DHT22;11252;50.596;17.648;2023-04-06T13:21:41;12.80;59.50
22173;DHT22;11252;50.596;17.648;2023-04-06T13:24:09;12.60;59.70
22173;DHT22;11252;50.596;17.648;2023-04-06T13:26:36;12.70;59.90
22173;DHT22;11252;50.596;17.648;2023-04-06T13:29:03;12.00;59.10
22173;DHT22;11252;50.596;17.648;2023-04-06T13:31:30;11.60;61.20
22173;DHT22;11252;50.596;17.648;2023-04-06T13:33:58;11.60;61.40
22173;DHT22;11252;50.596;17.648;2023-04-06T13:36:25;11.50;61.10
22173;DHT22;11252;50.596;17.648;2023-04-06T13:38:53;11.50;61.60
22173;DHT22;11252;50.596;17.648;2023-04-06T13:41:23;11.90;62.30
22173;DHT22;11252;50.596;17.648;2023-04-06T13:43:54;11.90;60.80
22173;DHT22;11252;50.596;17.648;2023-04-06T13:46:23;11.70;61.20
22173;DHT22;11252;50.596;17.648;2023-04-06T13:48:52;11.70;61.70
22173;DHT22;11252;50.596;17.648;2023-04-06T13:51:24;11.70;61.90
22173;DHT22;11252;50.596;17.648;2023-04-06T13:53:54;11.60;62.30
22173;DHT22;11252;50.596;17.648;2023-04-06T13:56:22;11.60;62.10
22173;DHT22;11252;50.596;17.648;2023-04-06T13:58:49;11.70;62.00
22173;DHT22;11252;50.596;17.648;2023-04-06T14:01:16;11.50;62.90
22173;DHT22;11252;50.596;17.648;2023-04-06T14:03:44;11.50;62.50
22173;DHT22;11252;50.596;17.648;2023-04-06T14:06:15;11.40;61.70
22173;DHT22;11252;50.596;17.648;2023-04-06T14:08:45;11.40;62.10
22173;DHT22;11252;50.596;17.648;2023-04-06T14:11:13;11.30;62.30
22173;DHT22;11252;50.596;17.648;2023-04-06T14:13:41;11.10;63.50
22173;DHT22;11252;50.596;17.648;2023-04-06T14:16:09;11.10;64.20
22173;DHT22;11252;50.596;17.648;2023-04-06T14:18:37;11.00;63.60
22173;DHT22;11252;50.596;17.648;2023-04-06T14:21:05;11.00;63.30
22173;DHT22;11252;50.596;17.648;2023-04-06T14:23:32;11.00;64.40
22173;DHT22;11252;50.596;17.648;2023-04-06T14:26:03;11.00;63.40
22173;DHT22;11252;50.596;17.648;2023-04-06T14:28:35;11.00;62.80
22173;DHT22;11252;50.596;17.648;2023-04-06T14:31:10;10.90;63.70
22173;DHT22;11252;50.596;17.648;2023-04-06T14:33:39;10.90;63.30
22173;DHT22;11252;50.596;17.648;2023-04-06T14:36:07;10.90;62.10
22173;DHT22;11252;50.596;17.648;2023-04-06T14:38:35;10.80;63.60
22173;DHT22;11252;50.596;17.648;2023-04-06T14:41:02;10.70;63.30
22173;DHT22;11252;50.596;17.648;2023-04-06T14:43:30;10.60;64.00
22173;DHT22;11252;50.596;17.648;2023-04-06T14:46:01;10.50;63.30
22173;DHT22;11252;50.596;17.648;2023-04-06T14:48:28;10.50;64.70
22173;DHT22;11252;50.596;17.648;2023-04-06T14:50:57;10.40;64.10
22173;DHT22;11252;50.596;17.648;2023-04-06T14:53:25;10.20;64.00
22173;DHT22;11252;50.596;17.648;2023-04-06T14:55:53;10.10;65.00
22173;DHT22;11252;50.596;17.648;2023-04-06T14:58:21;10.00;65.30
22173;DHT22;11252;50.596;17.648;2023-04-06T15:00:49;9.90;65.80
22173;DHT22;11252;50.596;17.648;2023-04-06T15:03:23;10.00;65.50
22173;DHT22;11252;50.596;17.648;2023-04-06T15:05:53;9.90;65.20
22173;DHT22;11252;50.596;17.648;2023-04-06T15:08:22;9.80;66.00
22173;DHT22;11252;50.596;17.648;2023-04-06T15:10:50;9.80;66.10
22173;DHT22;11252;50.596;17.648;2023-04-06T15:13:18;9.90;65.60
22173;DHT22;11252;50.596;17.648;2023-04-06T15:15:45;9.90;65.80
22173;DHT22;11252;50.596;17.648;2023-04-06T15:18:13;9.90;65.80
22173;DHT22;11252;50.596;17.648;2023-04-06T15:20:40;10.00;66.20
22173;DHT22;11252;50.596;17.648;2023-04-06T15:23:11;10.00;65.50
22173;DHT22;11252;50.596;17.648;2023-04-06T15:25:39;10.10;66.80
22173;DHT22;11252;50.596;17.648;2023-04-06T15:28:08;10.20;65.30
22173;DHT22;11252;50.596;17.648;2023-04-06T15:30:35;10.00;65.80
22173;DHT22;11252;50.596;17.648;2023-04-06T15:33:04;10.00;65.40
22173;DHT22;11252;50.596;17.648;2023-04-06T15:35:33;10.00;64.80